| time (UTC) | temp C | wind direction | speed KPH | gust KPH | rain 1hr cm | rain 24hr cm | rain mn cm | humidity % | barometer mb |
| 20260906083036 | 20 | 238 | 0.0 | 0.0 | 0.00 | 0.30 | 0.00 | 78 | 1010.8 |
| 20260906081535 | 20 | 238 | 0.0 | 0.0 | 0.00 | 0.30 | 0.00 | 78 | 1010.8 |
| 20260906080034 | 20 | 238 | 0.0 | 0.0 | 0.00 | 0.30 | 0.00 | 78 | 1010.7 |
| 20260906074537 | 20 | 238 | 0.0 | 0.0 | 0.00 | 0.30 | 0.00 | 78 | 1010.4 |
| 20260906073033 | 20 | 238 | 0.0 | 0.0 | 0.00 | 0.30 | 0.00 | 78 | 1010.4 |
| 20260906071531 | 20 | 238 | 0.0 | 0.0 | 0.00 | 0.30 | 0.00 | 78 | 1010.4 |
| 20260906070029 | 20 | 238 | 0.0 | 0.0 | 0.00 | 0.30 | 0.00 | 77 | 1010.7 |
| 20260906064528 | 20 | 238 | 0.0 | 0.0 | 0.00 | 0.30 | 0.00 | 77 | 1010.9 |
| 20260906063030 | 21 | 238 | 0.0 | 0.0 | 0.00 | 0.30 | 0.00 | 77 | 1011.2 |
| 20260906061524 | 21 | 238 | 0.0 | 1.6 | 0.00 | 0.30 | 0.00 | 77 | 1011.2 |
| 20260906060023 | 21 | 238 | 0.0 | 0.0 | 0.00 | 0.30 | 0.00 | 77 | 1011.4 |
| 20260906054539 | 21 | 238 | 0.0 | 0.0 | 0.00 | 0.30 | 0.00 | 77 | 1011.3 |
| 20260906053021 | 21 | 238 | 0.0 | 0.0 | 0.00 | 0.30 | 0.00 | 76 | 1011.4 |
| 20260906051529 | 21 | 238 | 0.0 | 0.0 | 0.00 | 0.30 | 0.00 | 76 | 1011.5 |
| 20260906050028 | 21 | 238 | 0.0 | 0.0 | 0.00 | 0.30 | 0.00 | 76 | 1011.6 |
| 20260906044518 | 21 | 234 | 0.0 | 0.0 | 0.00 | 0.30 | 0.00 | 75 | 1011.5 |
| 20260906043016 | 21 | 234 | 0.0 | 0.0 | 0.00 | 0.30 | 0.00 | 74 | 1011.4 |
| 20260906041515 | 21 | 234 | 0.0 | 1.6 | 0.00 | 0.30 | 0.00 | 74 | 1011.2 |
| 20260906040015 | 21 | 234 | 0.0 | 1.6 | 0.00 | 0.30 | 0.30 | 73 | 1011.6 |
| 20260906034517 | 21 | 234 | 0.0 | 0.0 | 0.00 | 0.30 | 0.30 | 72 | 1011.7 |
| 20260906033013 | 22 | 234 | 0.0 | 0.0 | 0.00 | 0.30 | 0.30 | 71 | 1011.5 |
| 20260906031540 | 22 | 234 | 0.0 | 0.0 | 0.00 | 0.30 | 0.30 | 69 | 1011.5 |
| 20260906030012 | 22 | 234 | 0.0 | 0.0 | 0.00 | 0.30 | 0.30 | 67 | 1011.6 |
| 20260906024533 | 22 | 234 | 0.0 | 0.0 | 0.00 | 0.30 | 0.30 | 66 | 1011.4 |
| 20260906023011 | 22 | 234 | 0.0 | 0.0 | 0.00 | 0.30 | 0.30 | 65 | 1011.5 |
| 20260906021510 | 22 | 234 | 0.0 | 0.0 | 0.00 | 0.30 | 0.30 | 65 | 1011.5 |
| 20260906020010 | 22 | 234 | 0.0 | 0.0 | 0.00 | 0.30 | 0.30 | 65 | 1011.5 |
| 20260906014516 | 23 | 234 | 0.0 | 1.6 | 0.00 | 0.30 | 0.30 | 64 | 1011.3 |
| 20260906013009 | 23 | 235 | 0.0 | 0.0 | 0.00 | 0.30 | 0.30 | 64 | 1011.1 |
| 20260906011509 | 23 | 235 | 0.0 | 0.0 | 0.00 | 0.30 | 0.30 | 64 | 1010.6 |
| 20260906010020 | 23 | 235 | 0.0 | 1.6 | 0.00 | 0.30 | 0.30 | 64 | 1010.5 |
| 20260906004508 | 24 | 234 | 0.0 | 1.6 | 0.00 | 0.30 | 0.30 | 64 | 1010.6 |
| 20260906003007 | 24 | 235 | 0.0 | 1.6 | 0.00 | 0.30 | 0.30 | 64 | 1010.4 |
| 20260906001507 | 25 | 235 | 0.0 | 1.6 | 0.00 | 0.30 | 0.30 | 64 | 1010.3 |
| 20260906000011 | 25 | 235 | 0.0 | 0.0 | 0.00 | 0.30 | 0.30 | 64 | 1010.3 |
| 20260905234506 | 26 | 235 | 0.0 | 0.0 | 0.00 | 0.30 | 0.30 | 62 | 1010.2 |
| 20260905233006 | 26 | 246 | 0.0 | 1.6 | 0.00 | 0.30 | 0.30 | 61 | 1010.3 |
| 20260905231505 | 27 | 290 | 0.0 | 1.6 | 0.00 | 0.30 | 0.30 | 59 | 1010.1 |
| 20260905230007 | 28 | 264 | 0.0 | 0.0 | 0.00 | 0.30 | 0.30 | 55 | 1010.0 |
| 20260905224513 | 30 | 210 | 0.0 | 0.0 | 0.00 | 0.30 | 0.30 | 51 | 1010.2 |
| 20260905223003 | 31 | 210 | 0.0 | 3.2 | 0.00 | 0.30 | 0.30 | 47 | 1010.3 |
| 20260905221506 | 31 | 207 | 0.0 | 4.8 | 0.00 | 0.30 | 0.30 | 46 | 1010.2 |
| 20260905220002 | 31 | 205 | 3.2 | 8.0 | 0.00 | 0.30 | 0.30 | 45 | 1010.3 |
| 20260905214501 | 31 | 232 | 4.8 | 12.9 | 0.00 | 0.30 | 0.30 | 46 | 1010.5 |
| 20260905213103 | 31 | 184 | 3.2 | 8.0 | 0.00 | 0.30 | 0.30 | 44 | 1010.4 |
| 20260905211609 | 31 | 190 | 3.2 | 6.4 | 0.00 | 0.30 | 0.30 | 45 | 1010.6 |
| 20260905210104 | 31 | 167 | 1.6 | 8.0 | 0.00 | 0.30 | 0.30 | 46 | 1010.7 |
| 20260905204600 | 30 | 212 | 0.0 | 8.0 | 0.00 | 0.30 | 0.30 | 43 | 1010.7 |
| 20260905203101 | 30 | 238 | 1.6 | 9.7 | 0.00 | 0.30 | 0.30 | 45 | 1010.7 |
| 20260905201556 | 30 | 236 | 0.0 | 4.8 | 0.00 | 0.30 | 0.30 | 48 | 1010.9 |
| 20260905200101 | 30 | 153 | 0.0 | 6.4 | 0.00 | 0.30 | 0.30 | 49 | 1011.2 |
| 20260905194547 | 29 | 69 | 3.2 | 6.4 | 0.00 | 0.30 | 0.30 | 48 | 1011.5 |
| 20260905193046 | 29 | 205 | 3.2 | 8.0 | 0.00 | 0.30 | 0.30 | 49 | 1011.8 |
| 20260905191545 | 29 | 219 | 1.6 | 11.3 | 0.00 | 0.30 | 0.30 | 55 | 1011.9 |
| 20260905190042 | 28 | 90 | 1.6 | 14.5 | 0.00 | 0.30 | 0.30 | 54 | 1012.1 |
| 20260905184540 | 28 | 160 | 1.6 | 8.0 | 0.00 | 0.30 | 0.30 | 54 | 1012.3 |
| 20260905183039 | 27 | 132 | 0.0 | 6.4 | 0.00 | 0.30 | 0.30 | 60 | 1012.6 |
| 20260905181538 | 26 | 71 | 1.6 | 11.3 | 0.00 | 0.30 | 0.30 | 60 | 1012.9 |
| 20260905180038 | 26 | 215 | 3.2 | 9.7 | 0.00 | 0.30 | 0.30 | 63 | 1013.2 |
| 20260905174537 | 26 | 189 | 3.2 | 9.7 | 0.00 | 0.30 | 0.30 | 63 | 1013.4 |
| 20260905173054 | 25 | 84 | 0.0 | 12.9 | 0.00 | 0.30 | 0.30 | 67 | 1013.9 |
| 20260905171539 | 23 | 62 | 3.2 | 11.3 | 0.00 | 0.30 | 0.30 | 68 | 1014.1 |
| 20260905170034 | 23 | 132 | 1.6 | 8.0 | 0.30 | 0.30 | 0.30 | 69 | 1014.2 |
| 20260905164533 | 23 | 69 | 0.0 | 0.0 | 0.30 | 0.30 | 0.30 | 71 | 1014.1 |
| 20260905163032 | 25 | 173 | 1.6 | 9.7 | 0.30 | 0.30 | 0.30 | 68 | 1013.5 |
| 20260905161532 | 28 | 140 | 3.2 | 14.5 | 0.30 | 0.30 | 0.30 | 60 | 1013.3 |
| 20260905160034 | 30 | 323 | 1.6 | 8.0 | 0.00 | 0.00 | 0.00 | 56 | 1013.4 |
| 20260905154528 | 30 | 253 | 3.2 | 9.7 | 0.00 | 0.00 | 0.00 | 55 | 1013.1 |
| 20260905153025 | 30 | 313 | 1.6 | 6.4 | 0.00 | 0.00 | 0.00 | 57 | 1013.3 |
| 20260905151521 | 29 | 269 | 0.0 | 1.6 | 0.00 | 0.00 | 0.00 | 58 | 1013.0 |
| 20260905150020 | 28 | 305 | 3.2 | 9.7 | 0.00 | 0.00 | 0.00 | 59 | 1013.0 |
| 20260905144516 | 28 | 293 | 0.0 | 4.8 | 0.00 | 0.00 | 0.00 | 60 | 1013.2 |
| 20260905143014 | 28 | 219 | 1.6 | 6.4 | 0.00 | 0.00 | 0.00 | 60 | 1013.2 |
| 20260905141523 | 28 | 76 | 1.6 | 6.4 | 0.00 | 0.00 | 0.00 | 61 | 1013.5 |
| 20260905140008 | 27 | 130 | 0.0 | 3.2 | 0.00 | 0.00 | 0.00 | 64 | 1013.3 |
| 20260905134503 | 26 | 135 | 1.6 | 6.4 | 0.00 | 0.00 | 0.00 | 68 | 1013.4 |
| 20260905133100 | 25 | 159 | 0.0 | 4.8 | 0.00 | 0.00 | 0.00 | 73 | 1013.3 |
| 20260905131554 | 23 | 224 | 1.6 | 6.4 | 0.00 | 0.00 | 0.00 | 77 | 1013.6 |
| 20260905130051 | 22 | 34 | 0.0 | 0.0 | 0.00 | 0.00 | 0.00 | 79 | 1013.7 |
| 20260905124548 | 22 | 34 | 0.0 | 0.0 | 0.00 | 0.00 | 0.00 | 79 | 1013.9 |
| 20260905123044 | 21 | 34 | 0.0 | 0.0 | 0.00 | 0.00 | 0.00 | 79 | 1014.0 |
| 20260905121541 | 20 | 34 | 0.0 | 0.0 | 0.00 | 0.00 | 0.00 | 78 | 1013.9 |
| 20260905120038 | 20 | 34 | 0.0 | 0.0 | 0.00 | 0.00 | 0.00 | 78 | 1013.5 |
| 20260905114536 | 20 | 34 | 0.0 | 0.0 | 0.00 | 0.00 | 0.00 | 78 | 1013.3 |
| 20260905113034 | 20 | 34 | 0.0 | 0.0 | 0.00 | 0.00 | 0.00 | 78 | 1013.2 |
| 20260905111537 | 20 | 34 | 0.0 | 0.0 | 0.00 | 0.00 | 0.00 | 78 | 1012.9 |
| 20260905110033 | 20 | 34 | 0.0 | 0.0 | 0.00 | 0.00 | 0.00 | 78 | 1012.9 |
| 20260905104530 | 20 | 34 | 0.0 | 0.0 | 0.00 | 0.00 | 0.00 | 78 | 1012.7 |
| 20260905103029 | 20 | 34 | 0.0 | 0.0 | 0.00 | 0.00 | 0.00 | 78 | 1012.6 |
| 20260905101529 | 20 | 34 | 0.0 | 0.0 | 0.00 | 0.00 | 0.00 | 78 | 1012.5 |
| 20260905100026 | 20 | 34 | 0.0 | 0.0 | 0.00 | 0.00 | 0.00 | 78 | 1012.5 |
| 20260905094528 | 20 | 34 | 0.0 | 0.0 | 0.00 | 0.00 | 0.00 | 78 | 1012.6 |
| 20260905093026 | 20 | 34 | 0.0 | 0.0 | 0.00 | 0.00 | 0.00 | 78 | 1012.2 |
| 20260905091524 | 20 | 34 | 0.0 | 0.0 | 0.00 | 0.00 | 0.00 | 77 | 1012.3 |
| 20260905090022 | 20 | 34 | 0.0 | 0.0 | 0.00 | 0.00 | 0.00 | 77 | 1012.3 |
| 20260905084521 | 20 | 34 | 0.0 | 0.0 | 0.00 | 0.00 | 0.00 | 77 | 1012.4 |